OOCL Hamburg — VRZK9 — position and weather

sailwx.info

Track history (hours):
 
Tides and Currents Weather Stations Pressure Air Temp Water Temp Dewpoint Dewpoint Depression Visibility Wind Speed Wind Dir Waves Ship Positions

OOCL Hamburg

Last reported at 2014-Nov-11 07:14 UTC. Time now 2014-Nov-24 00:49 UTC.
Position N 36°19' E 014°32'.
Warning: this ship's position is 12 days out of date.

Length 323 m; beam 42.8 m; draft 14.5 m.

Type: Cargo ship. MMSI: 477702000.

Date/timePositionNaut miles runAvg speedWind from/ knotsBaromVisibWave heightAir tempDewpointWater temp
2014-Nov-11 07:14N 36°19' E 014°32'1115.7
2014-Nov-11 06:34N 36°23' E 014°19'2215.7
2014-Nov-11 05:10N 36°29' E 013°53'10415.7
2014-Nov-10 22:33N 37°02' E 011°51'1616.1
2014-Nov-10 21:33N 37°11' E 011°34'11816.9
2014-Nov-10 14:32N 37°41' E 009°09'6023.5
2014-Nov-10 12:00N 37°36' E 007°54'63217.4 350 / 41013.0 5.4 21.019.520.5
2014-Nov-08 23:34N 36°02' W 005°07'70560.9
2014-Nov-08 12:00N 35°54' E 009°24'173236.1 310 / 151020.0 5.4 20.016.921.5
2014-Nov-06 12:00N 39°36' W 026°48'2415.3 210 / 211017.0 5.4 18.013.118.0
2014-Nov-06 10:26N 39°41' W 027°18'1618.1
2014-Nov-06 09:33N 39°43' W 027°39'1919.4
2014-Nov-06 08:33N 39°46' W 028°04'1818.3
2014-Nov-06 07:33N 39°49' W 028°27'1818.4
2014-Nov-06 06:34N 39°52' W 028°51'1918.7
2014-Nov-06 05:33N 39°55' W 029°15'1918.6
2014-Nov-06 04:33N 39°58' W 029°39'1818.4
2014-Nov-06 03:33N 39°60' W 030°03'2518.7
2014-Nov-06 02:13N 40°01' W 030°35'1218.8
2014-Nov-06 01:34N 40°02' W 030°52'1918.8
2014-Nov-06 00:33N 40°02' W 031°16'3455113.0
2014-Nov-04 18:00N 39°36' E 043°42'   210 / 201019.0 5.4 25.019.123.0
Track history (hours):
 
Tides and Currents Weather Stations Pressure Air Temp Water Temp Dewpoint Dewpoint Depression Visibility Wind Speed Wind Dir Waves Ship Positions

OOCL Hamburg

Last reported at 2014-Nov-11 07:14 UTC. Time now 2014-Nov-24 00:49 UTC.
Position N 36°19' E 014°32'.
Warning: this ship's position is 12 days out of date.

Length 323 m; beam 42.8 m; draft 14.5 m.

Type: Cargo ship. MMSI: 477702000.

Date/timePositionNaut miles runAvg speedWind from/ knotsBaromVisibWave heightAir tempDewpointWater temp
2014-Nov-11 07:14N 36°19' E 014°32'1115.7
2014-Nov-11 06:34N 36°23' E 014°19'2215.7
2014-Nov-11 05:10N 36°29' E 013°53'10415.7
2014-Nov-10 22:33N 37°02' E 011°51'1616.1
2014-Nov-10 21:33N 37°11' E 011°34'11816.9
2014-Nov-10 14:32N 37°41' E 009°09'6023.5
2014-Nov-10 12:00N 37°36' E 007°54'63217.4 350 / 41013.0 5.4 21.019.520.5
2014-Nov-08 23:34N 36°02' W 005°07'70560.9
2014-Nov-08 12:00N 35°54' E 009°24'173236.1 310 / 151020.0 5.4 20.016.921.5
2014-Nov-06 12:00N 39°36' W 026°48'2415.3 210 / 211017.0 5.4 18.013.118.0
2014-Nov-06 10:26N 39°41' W 027°18'1618.1
2014-Nov-06 09:33N 39°43' W 027°39'1919.4
2014-Nov-06 08:33N 39°46' W 028°04'1818.3
2014-Nov-06 07:33N 39°49' W 028°27'1818.4
2014-Nov-06 06:34N 39°52' W 028°51'1918.7
2014-Nov-06 05:33N 39°55' W 029°15'1918.6
2014-Nov-06 04:33N 39°58' W 029°39'1818.4
2014-Nov-06 03:33N 39°60' W 030°03'2518.7
2014-Nov-06 02:13N 40°01' W 030°35'1218.8
2014-Nov-06 01:34N 40°02' W 030°52'1918.8
2014-Nov-06 00:33N 40°02' W 031°16'3455113.0
2014-Nov-04 18:00N 39°36' E 043°42'   210 / 201019.0 5.4 25.019.123.0

Dump ship's entire track history